Het weer levert geen direct gevaar op.    Er zijn geen waarschuwingen afgegeven.

metar rapporten vliegvelden

   
EBAW - Antwerp
gewijzigd: 19-11-2017 03:20
bewolking  
bewolking  
   wind: wnw 16,7 km/h
wind: wnw 16,7 km/h
temperatuur: 7°C
voelt als: 4°C
dauwpunt: 0°C
vochtigheid: 61%
barometer: 1017 hPa
bewolking: bewolking
zicht: meer dan 10 km
bewolking: grotendeels bewolkt 3500 ft,
bewolking 4300 ft
EBAW 190220Z AUTO 29009KT 9999 // BKN035/// OVC043/// 07/00 Q1017
EBLG - Li├Ęge
gewijzigd: 19-11-2017 03:20
grotendeels bewolkt  
grotendeels bewolkt  
   wind: westen 14,8 km/h
wind: westen 14,8 km/h
temperatuur: 5°C
voelt als: 2°C
dauwpunt: 1°C
vochtigheid: 76%
barometer: 1016 hPa
bewolking: grotendeels bewolkt
zicht: meer dan 10 km
bewolking: licht bewolkt 3400 ft,
grotendeels bewolkt 4600 ft
EBLG 190220Z 28008KT 9999 FEW034 BKN046 05/01 Q1016 NOSIG
EBCV - Mons/Bergen
gewijzigd: 19-11-2017 03:25
grotendeels bewolkt  
grotendeels bewolkt  
   wind: westen 11,1 km/h
wind: westen 11,1 km/h
temperatuur: 5°C
voelt als: 2°C
dauwpunt: 4°C
vochtigheid: 93%
barometer: 1018 hPa
bewolking: grotendeels bewolkt
zicht: meer dan 10 km
bewolking: grotendeels bewolkt 5000 ft
EBCV 190225Z AUTO 28006KT 9999 BKN050/// 05/04 Q1018 BLU
EHBK - Maastricht
gewijzigd: 19-11-2017 03:25
gedeeltelijk bewolkt  
gedeeltelijk bewolkt  
   wind: westen 9,3 km/h
wind: westen 9,3 km/h
temperatuur: 5°C
voelt als: 3°C
dauwpunt: 3°C
vochtigheid: 87%
barometer: 1016 hPa
bewolking: gedeeltelijk bewolkt
zicht: meer dan 10 km
bewolking: gedeeltelijk bewolkt 3700 ft,
gedeeltelijk bewolkt 4200 ft
EHBK 190225Z AUTO 28005KT 220V330 9999 SCT037 SCT042 05/03 Q1016
ELLX - Luxemburg
gewijzigd: 19-11-2017 03:20
grotendeels bewolkt  
grotendeels bewolkt  
   wind: westen 16,7 km/h
wind: westen 16,7 km/h
temperatuur: 5°C
voelt als: 2°C
dauwpunt: 5°C
vochtigheid: 100%
barometer: 1016 hPa
bewolking: grotendeels bewolkt
zicht: meer dan 10 km
bewolking: gedeeltelijk bewolkt 500 ft,
grotendeels bewolkt 700 ft,
grotendeels bewolkt 1000 ft
ELLX 190220Z AUTO 28009KT 9999 SCT005/// BKN007/// BKN010/// 05/05 Q1016 NOSIG
EBOS - Oostende
gewijzigd: 19-11-2017 03:20
licht bewolkt  
licht bewolkt  
   wind: nw 27,8 km/h
wind: nw 27,8 km/h
temperatuur: 7°C
voelt als: 3°C
dauwpunt: -1°C
vochtigheid: 57%
barometer: 1019 hPa
bewolking: licht bewolkt
zicht: meer dan 10 km
bewolking: licht bewolkt 3500 ft
EBOS 190220Z 32015KT 9999 FEW035 07/M01 Q1019 NOSIG

script ontwikkeld door  Saratoga-weather.org aangepast voor de template door  Weerstation Leuven